createdAt,value
2018-06-18T00:00:13.559Z,0
2018-06-18T00:01:14.285Z,0
2018-06-18T00:02:14.996Z,0
2018-06-18T00:03:15.709Z,0
2018-06-18T00:04:16.415Z,0
2018-06-18T00:05:17.127Z,0
2018-06-18T00:06:17.839Z,0
2018-06-18T00:07:18.562Z,0
2018-06-18T00:08:19.275Z,0
2018-06-18T00:09:19.987Z,0
2018-06-18T00:10:20.698Z,0
2018-06-18T00:11:21.411Z,0
2018-06-18T00:12:22.124Z,0
2018-06-18T00:13:22.837Z,0
2018-06-18T00:14:23.549Z,0
2018-06-18T00:15:24.261Z,0
2018-06-18T00:16:24.975Z,0
2018-06-18T00:17:25.686Z,0
2018-06-18T00:18:26.400Z,0
2018-06-18T00:19:27.112Z,0
2018-06-18T00:20:27.833Z,0
2018-06-18T00:21:28.545Z,0
2018-06-18T00:22:29.270Z,0
2018-06-18T00:23:29.984Z,0
2018-06-18T00:24:30.696Z,0
2018-06-18T00:25:31.408Z,0
2018-06-18T00:26:32.121Z,0
2018-06-18T00:27:32.833Z,0
2018-06-18T00:28:33.545Z,0
2018-06-18T00:29:34.258Z,0
2018-06-18T00:30:34.973Z,0
2018-06-18T00:31:35.686Z,0
2018-06-18T00:32:36.397Z,0
2018-06-18T00:33:37.109Z,0
2018-06-18T00:34:37.818Z,0
2018-06-18T00:35:38.542Z,0
2018-06-18T00:36:39.254Z,0
2018-06-18T00:37:39.966Z,0
2018-06-18T00:38:40.682Z,0
2018-06-18T00:39:41.391Z,0
2018-06-18T00:40:42.107Z,0
2018-06-18T00:41:42.828Z,0
2018-06-18T00:42:43.541Z,0
2018-06-18T00:43:44.254Z,0
2018-06-18T00:44:44.966Z,0
2018-06-18T00:45:45.678Z,0
2018-06-18T00:46:46.405Z,0
2018-06-18T00:47:47.132Z,0
2018-06-18T00:48:47.842Z,0
2018-06-18T00:49:48.554Z,0
2018-06-18T00:50:49.265Z,0
2018-06-18T00:51:49.976Z,0
2018-06-18T00:52:50.689Z,0
2018-06-18T00:53:51.400Z,0
2018-06-18T00:55:52.739Z,0
2018-06-18T00:56:53.450Z,0
2018-06-18T00:57:54.162Z,0
2018-06-18T00:58:54.873Z,0
2018-06-18T00:59:55.588Z,0
2018-06-18T01:00:56.299Z,0
2018-06-18T01:01:57.011Z,0
2018-06-18T01:02:57.724Z,0
2018-06-18T01:03:58.438Z,0
2018-06-18T01:04:59.150Z,0
2018-06-18T01:05:59.864Z,0
2018-06-18T01:07:00.574Z,0
2018-06-18T01:08:01.287Z,0
2018-06-18T01:09:02.000Z,0
2018-06-18T01:10:02.712Z,0
2018-06-18T01:11:03.425Z,0
2018-06-18T01:12:04.150Z,0
2018-06-18T01:13:04.862Z,0
2018-06-18T01:14:05.586Z,0
2018-06-18T01:15:06.297Z,0
2018-06-18T01:16:07.008Z,0
2018-06-18T01:17:07.717Z,0
2018-06-18T01:18:08.428Z,0
2018-06-18T01:19:09.142Z,0
2018-06-18T01:20:09.864Z,0
2018-06-18T01:21:10.578Z,0
2018-06-18T01:22:11.304Z,0
2018-06-18T01:23:12.016Z,0
2018-06-18T01:24:12.728Z,0
2018-06-18T01:25:13.441Z,0
2018-06-18T01:26:14.154Z,0
2018-06-18T01:27:14.865Z,0
2018-06-18T01:28:15.577Z,0
2018-06-18T01:29:16.292Z,0
2018-06-18T01:30:17.003Z,0
2018-06-18T01:31:17.730Z,0
2018-06-18T01:32:18.442Z,0
2018-06-18T01:33:19.153Z,0
2018-06-18T01:34:19.866Z,0
2018-06-18T01:35:20.578Z,0
2018-06-18T01:36:21.291Z,0
2018-06-18T01:37:22.004Z,0
2018-06-18T01:38:22.714Z,0
2018-06-18T01:39:23.428Z,0
2018-06-18T01:40:24.139Z,0
2018-06-18T01:41:24.862Z,0
2018-06-18T01:42:25.573Z,0
2018-06-18T01:43:26.287Z,0
2018-06-18T01:44:27.045Z,0
2018-06-18T01:45:27.709Z,0
2018-06-18T01:46:28.422Z,0
2018-06-18T01:47:29.132Z,0
2018-06-18T01:48:29.844Z,0
2018-06-18T01:49:30.570Z,0
2018-06-18T01:50:31.287Z,0
2018-06-18T01:51:31.996Z,0
2018-06-18T01:52:32.713Z,0
2018-06-18T01:53:33.438Z,0
2018-06-18T01:54:34.160Z,0
2018-06-18T01:55:34.872Z,0
2018-06-18T01:56:35.584Z,0
2018-06-18T01:57:36.305Z,0
2018-06-18T01:58:37.018Z,0
2018-06-18T01:59:37.730Z,0
2018-06-18T02:00:38.441Z,0
2018-06-18T02:01:39.152Z,0
2018-06-18T02:02:39.864Z,0
2018-06-18T02:03:40.575Z,0
2018-06-18T02:04:41.300Z,0
2018-06-18T02:05:42.013Z,0
2018-06-18T02:06:42.759Z,0
2018-06-18T02:07:43.484Z,0
2018-06-18T02:08:44.195Z,0
2018-06-18T02:09:44.907Z,0
2018-06-18T02:10:45.619Z,0
2018-06-18T02:11:46.343Z,0
2018-06-18T02:12:47.055Z,0
2018-06-18T02:13:47.763Z,0
2018-06-18T02:14:48.476Z,0
2018-06-18T02:15:49.187Z,0
2018-06-18T02:16:49.900Z,0
2018-06-18T02:17:50.609Z,0
2018-06-18T02:18:51.320Z,0
2018-06-18T02:19:52.030Z,0
2018-06-18T02:20:52.742Z,0
2018-06-18T02:21:53.454Z,0
2018-06-18T02:22:54.165Z,0
2018-06-18T02:23:54.888Z,0
2018-06-18T02:24:55.598Z,0
2018-06-18T02:25:56.309Z,0
2018-06-18T02:26:57.021Z,0
2018-06-18T02:27:57.745Z,0
2018-06-18T02:28:58.459Z,0
2018-06-18T02:29:59.170Z,0
2018-06-18T02:30:59.908Z,0
2018-06-18T02:32:00.620Z,4
2018-06-18T02:33:01.332Z,4
2018-06-18T02:34:02.047Z,4
2018-06-18T02:35:02.768Z,0
2018-06-18T02:36:03.479Z,0
2018-06-18T02:37:04.192Z,4
2018-06-18T02:38:04.905Z,4
2018-06-18T02:39:05.617Z,4
2018-06-18T02:40:06.328Z,4
2018-06-18T02:41:07.052Z,8
2018-06-18T02:42:07.766Z,4
2018-06-18T02:43:08.477Z,4
2018-06-18T02:44:09.189Z,4
2018-06-18T02:45:09.915Z,8
2018-06-18T02:46:10.630Z,8
2018-06-18T02:47:11.341Z,12
2018-06-18T02:48:12.056Z,12
2018-06-18T02:49:12.772Z,12
2018-06-18T02:50:13.483Z,12
2018-06-18T02:51:14.197Z,16
2018-06-18T02:52:14.920Z,16
2018-06-18T02:53:15.633Z,16
2018-06-18T02:54:16.360Z,20
2018-06-18T02:55:17.076Z,24
2018-06-18T02:56:17.790Z,24
2018-06-18T02:57:18.505Z,28
2018-06-18T02:58:19.219Z,32
2018-06-18T02:59:19.932Z,40
2018-06-18T03:00:20.659Z,40
2018-06-18T03:01:21.372Z,44
2018-06-18T03:02:22.085Z,44
2018-06-18T03:03:22.813Z,48
2018-06-18T03:04:23.528Z,48
2018-06-18T03:05:24.243Z,52
2018-06-18T03:06:24.970Z,52
2018-06-18T03:07:25.684Z,52
2018-06-18T03:08:26.397Z,56
2018-06-18T03:09:27.124Z,56
2018-06-18T03:10:27.839Z,68
2018-06-18T03:11:28.552Z,68
2018-06-18T03:12:29.267Z,76
2018-06-18T03:13:29.979Z,80
2018-06-18T03:14:30.694Z,80
2018-06-18T03:15:31.407Z,84
2018-06-18T03:16:32.121Z,92
2018-06-18T03:17:32.833Z,92
2018-06-18T03:18:33.546Z,100
2018-06-18T03:19:34.261Z,104
2018-06-18T03:20:34.976Z,112
2018-06-18T03:21:35.701Z,116
2018-06-18T03:22:36.415Z,116
2018-06-18T03:23:37.142Z,120
2018-06-18T03:24:37.857Z,120
2018-06-18T03:25:38.583Z,124
2018-06-18T03:26:39.296Z,116
2018-06-18T03:27:40.011Z,120
2018-06-18T03:28:40.729Z,132
2018-06-18T03:29:41.441Z,136
2018-06-18T03:30:42.156Z,152
2018-06-18T03:31:42.870Z,164
2018-06-18T03:32:43.596Z,180
2018-06-18T03:33:44.314Z,192
2018-06-18T03:34:45.025Z,204
2018-06-18T03:35:45.735Z,224
2018-06-18T03:36:46.460Z,244
2018-06-18T03:37:47.176Z,268
2018-06-18T03:38:47.892Z,288
2018-06-18T03:39:48.607Z,300
2018-06-18T03:40:49.324Z,316
2018-06-18T03:41:50.042Z,360
2018-06-18T03:42:50.758Z,424
2018-06-18T03:43:51.473Z,528
2018-06-18T03:44:52.201Z,520
2018-06-18T03:45:52.917Z,512
2018-06-18T03:46:53.633Z,524
2018-06-18T03:47:54.348Z,508
2018-06-18T03:48:55.076Z,492
2018-06-18T03:49:55.802Z,440
2018-06-18T03:50:56.522Z,400
2018-06-18T03:51:57.235Z,340
2018-06-18T03:52:57.948Z,308
2018-06-18T03:53:58.662Z,308
2018-06-18T03:54:59.378Z,320
2018-06-18T03:56:00.093Z,364
2018-06-18T03:57:00.810Z,412
2018-06-18T03:58:01.537Z,468
2018-06-18T03:59:02.253Z,516
2018-06-18T04:00:02.979Z,580
2018-06-18T04:01:03.710Z,684
2018-06-18T04:02:04.435Z,796
2018-06-18T04:03:05.150Z,844
2018-06-18T04:04:05.864Z,880
2018-06-18T04:05:06.581Z,868
2018-06-18T04:06:07.296Z,824
2018-06-18T04:07:08.010Z,792
2018-06-18T04:08:08.728Z,756
2018-06-18T04:09:09.443Z,748
2018-06-18T04:10:10.159Z,760
2018-06-18T04:11:10.873Z,796
2018-06-18T04:12:11.593Z,828
2018-06-18T04:13:12.313Z,852
2018-06-18T04:14:13.026Z,872
2018-06-18T04:15:13.756Z,944
2018-06-18T04:16:14.476Z,980
2018-06-18T04:17:15.200Z,1172
2018-06-18T04:18:15.916Z,1180
2018-06-18T04:19:16.630Z,1208
2018-06-18T04:20:17.346Z,1232
2018-06-18T04:21:18.064Z,1204
2018-06-18T04:22:18.778Z,1164
2018-06-18T04:23:19.502Z,1132
2018-06-18T04:24:20.224Z,1144
2018-06-18T04:25:20.952Z,1172
2018-06-18T04:26:21.670Z,1192
2018-06-18T04:27:22.389Z,1164
2018-06-18T04:28:23.103Z,1140
2018-06-18T04:29:23.820Z,1172
2018-06-18T04:30:24.535Z,1156
2018-06-18T04:31:25.250Z,1160
2018-06-18T04:32:25.968Z,1140
2018-06-18T04:33:26.683Z,1088
2018-06-18T04:34:27.413Z,1048
2018-06-18T04:35:28.131Z,1000
2018-06-18T04:36:28.859Z,960
2018-06-18T04:37:29.604Z,900
2018-06-18T04:38:30.304Z,912
2018-06-18T04:39:31.022Z,968
2018-06-18T04:40:31.740Z,1116
2018-06-18T04:41:32.457Z,1232
2018-06-18T04:42:33.182Z,1328
2018-06-18T04:43:33.898Z,1392
2018-06-18T04:44:34.615Z,1440
2018-06-18T04:45:35.332Z,1508
2018-06-18T04:46:36.051Z,1604
2018-06-18T04:47:36.779Z,1796
2018-06-18T04:48:37.495Z,2004
2018-06-18T04:49:38.210Z,2112
2018-06-18T04:50:38.930Z,2092
2018-06-18T04:51:39.658Z,2032
2018-06-18T04:52:40.373Z,2012
2018-06-18T04:53:41.089Z,1860
2018-06-18T04:54:41.819Z,1840
2018-06-18T04:55:42.535Z,1784
2018-06-18T04:56:43.327Z,1864
2018-06-18T04:57:43.970Z,1836
2018-06-18T04:58:44.699Z,1964
2018-06-18T04:59:45.474Z,1996
2018-06-18T05:00:46.188Z,1964
2018-06-18T05:01:46.918Z,1780
2018-06-18T05:02:47.633Z,1608
2018-06-18T05:03:48.350Z,1572
2018-06-18T05:04:49.080Z,1616
2018-06-18T05:05:49.821Z,1756
2018-06-18T05:06:50.537Z,1648
2018-06-18T05:07:51.266Z,1664
2018-06-18T05:08:51.984Z,1880
2018-06-18T05:09:52.698Z,1988
2018-06-18T05:10:53.414Z,1976
2018-06-18T05:11:54.132Z,2056
2018-06-18T05:12:54.914Z,2096
2018-06-18T05:13:55.636Z,2028
2018-06-18T05:14:56.362Z,1948
2018-06-18T05:15:57.094Z,1916
2018-06-18T05:16:57.810Z,1892
2018-06-18T05:17:58.527Z,1904
2018-06-18T05:18:59.257Z,1924
2018-06-18T05:19:59.973Z,1976
2018-06-18T05:21:00.688Z,2064
2018-06-18T05:22:01.405Z,2128
2018-06-18T05:23:02.136Z,2156
2018-06-18T05:24:02.852Z,2196
2018-06-18T05:25:03.568Z,2192
2018-06-18T05:26:04.298Z,2424
2018-06-18T05:27:05.016Z,2192
2018-06-18T05:28:05.733Z,2368
2018-06-18T05:29:06.461Z,2348
2018-06-18T05:30:07.179Z,2440
2018-06-18T05:31:07.897Z,2216
2018-06-18T05:32:08.613Z,2164
2018-06-18T05:33:09.330Z,2088
2018-06-18T05:34:10.058Z,2016
2018-06-18T05:35:10.773Z,1952
2018-06-18T05:36:11.489Z,1836
2018-06-18T05:37:12.205Z,1920
2018-06-18T05:38:12.936Z,2164
2018-06-18T05:39:13.666Z,2328
2018-06-18T05:40:14.383Z,2324
2018-06-18T05:41:15.099Z,2396
2018-06-18T05:42:15.815Z,2480
2018-06-18T05:43:16.532Z,2640
2018-06-18T05:44:17.247Z,2680
2018-06-18T05:45:17.977Z,2648
2018-06-18T05:46:18.694Z,2624
2018-06-18T05:47:19.410Z,2632
2018-06-18T05:48:20.127Z,2768
2018-06-18T05:49:20.844Z,2812
2018-06-18T05:50:21.616Z,2876
2018-06-18T05:51:22.303Z,2860
2018-06-18T05:52:23.020Z,2932
2018-06-18T05:53:23.738Z,2772
2018-06-18T05:54:24.454Z,2708
2018-06-18T05:55:25.172Z,2696
2018-06-18T05:56:25.889Z,2712
2018-06-18T05:57:26.609Z,2680
2018-06-18T05:58:27.386Z,2756
2018-06-18T05:59:28.066Z,2592
2018-06-18T06:00:28.784Z,2464
2018-06-18T06:01:29.503Z,2432
2018-06-18T06:02:30.220Z,2564
2018-06-18T06:03:30.935Z,2528
2018-06-18T06:04:31.650Z,2380
2018-06-18T06:05:32.366Z,2456
2018-06-18T06:06:33.082Z,2468
2018-06-18T06:07:33.802Z,2520
2018-06-18T06:08:34.517Z,2684
2018-06-18T06:09:35.234Z,2724
2018-06-18T06:10:35.951Z,3060
2018-06-18T06:11:36.686Z,3272
2018-06-18T06:12:37.410Z,3368
2018-06-18T06:13:38.150Z,3752
2018-06-18T06:14:38.871Z,3684
2018-06-18T06:15:39.589Z,3460
2018-06-18T06:16:40.305Z,2808
2018-06-18T06:17:41.023Z,2776
2018-06-18T06:18:41.753Z,2740
2018-06-18T06:19:42.469Z,2528
2018-06-18T06:20:43.186Z,2968
2018-06-18T06:21:43.915Z,3060
2018-06-18T06:22:44.631Z,3152
2018-06-18T06:23:45.359Z,3460
2018-06-18T06:24:46.070Z,3308
2018-06-18T06:25:46.786Z,3316
2018-06-18T06:26:47.504Z,3472
2018-06-18T06:27:48.244Z,3152
2018-06-18T06:28:48.953Z,3084
2018-06-18T06:29:49.673Z,3148
2018-06-18T06:30:50.403Z,3432
2018-06-18T06:31:51.126Z,3848
2018-06-18T06:32:51.856Z,4096
2018-06-18T06:33:52.574Z,3792
2018-06-18T06:34:53.303Z,3956
2018-06-18T06:35:54.022Z,4352
2018-06-18T06:36:54.753Z,4388
2018-06-18T06:37:55.473Z,4536
2018-06-18T06:38:56.190Z,4324
2018-06-18T06:39:56.910Z,4464
2018-06-18T06:40:57.645Z,4544
2018-06-18T06:41:58.363Z,4624
2018-06-18T06:42:59.093Z,4456
2018-06-18T06:43:59.811Z,4356
2018-06-18T06:45:00.529Z,4396
2018-06-18T06:46:01.263Z,4460
2018-06-18T06:47:01.990Z,4852
2018-06-18T06:48:02.710Z,5196
2018-06-18T06:49:03.428Z,5624
2018-06-18T06:50:04.149Z,5380
2018-06-18T06:51:04.870Z,4996
2018-06-18T06:52:05.588Z,4956
2018-06-18T06:53:06.309Z,4860
2018-06-18T06:54:07.029Z,4600
2018-06-18T06:55:07.746Z,4464
2018-06-18T06:56:08.480Z,4824
2018-06-18T06:57:09.196Z,5004
2018-06-18T06:58:09.927Z,4692
2018-06-18T06:59:10.659Z,4548
2018-06-18T07:00:11.378Z,4384
2018-06-18T07:01:12.122Z,4612
2018-06-18T07:02:12.829Z,4660
2018-06-18T07:03:13.548Z,4604
2018-06-18T07:04:14.270Z,4880
2018-06-18T07:05:14.990Z,5184
2018-06-18T07:06:15.722Z,4756
2018-06-18T07:07:16.457Z,4468
2018-06-18T07:08:17.190Z,4664
2018-06-18T07:09:17.917Z,4912
2018-06-18T07:10:18.637Z,4800
2018-06-18T07:11:19.359Z,4632
2018-06-18T07:12:20.089Z,4540
2018-06-18T07:13:20.889Z,4220
2018-06-18T07:14:21.529Z,4000
2018-06-18T07:15:22.263Z,4036
2018-06-18T07:16:22.982Z,4124
2018-06-18T07:17:23.700Z,4212
2018-06-18T07:18:24.433Z,4692
2018-06-18T07:19:25.153Z,4708
2018-06-18T07:20:25.885Z,5280
2018-06-18T07:21:26.601Z,6524
2018-06-18T07:22:27.330Z,7032
2018-06-18T07:23:28.047Z,7252
2018-06-18T07:24:28.778Z,7348
2018-06-18T07:25:29.497Z,9236
2018-06-18T07:26:30.215Z,9280
2018-06-18T07:27:30.934Z,8784
2018-06-18T07:28:31.656Z,9520
2018-06-18T07:29:32.375Z,9716
2018-06-18T07:30:33.272Z,10356
2018-06-18T07:31:33.823Z,10244
2018-06-18T07:32:34.544Z,11464
2018-06-18T07:33:35.280Z,10444
2018-06-18T07:34:35.999Z,9808
2018-06-18T07:35:36.722Z,10088
2018-06-18T07:36:37.441Z,9944
2018-06-18T07:37:38.159Z,9564
2018-06-18T07:38:38.880Z,9204
2018-06-18T07:39:39.602Z,9140
2018-06-18T07:40:40.322Z,8824
2018-06-18T07:41:41.055Z,8464
2018-06-18T07:42:41.775Z,8356
2018-06-18T07:43:42.497Z,7452
2018-06-18T07:44:43.228Z,6264
2018-06-18T07:45:43.961Z,5636
2018-06-18T07:46:44.681Z,6020
2018-06-18T07:47:45.400Z,6020
2018-06-18T07:48:46.122Z,6164
2018-06-18T07:49:46.840Z,6444
2018-06-18T07:50:47.572Z,5968
2018-06-18T07:51:48.376Z,5592
2018-06-18T07:52:49.008Z,5724
2018-06-18T07:53:49.729Z,5660
2018-06-18T07:54:50.461Z,6424
2018-06-18T07:55:51.180Z,6088
2018-06-18T07:56:51.902Z,6196
2018-06-18T07:57:52.626Z,6828
2018-06-18T07:58:53.342Z,6860
2018-06-18T07:59:54.063Z,6848
2018-06-18T08:00:54.781Z,6792
2018-06-18T08:01:55.501Z,6868
2018-06-18T08:02:56.233Z,6916
2018-06-18T08:03:56.968Z,6904
2018-06-18T08:04:57.688Z,6960
2018-06-18T08:05:58.408Z,7096
2018-06-18T08:06:59.131Z,7544
2018-06-18T08:07:59.855Z,7116
2018-06-18T08:09:00.569Z,7100
2018-06-18T08:10:01.355Z,7208
2018-06-18T08:11:02.020Z,7244
2018-06-18T08:12:02.740Z,7592
2018-06-18T08:13:03.467Z,7984
2018-06-18T08:14:04.178Z,7932
2018-06-18T08:15:04.898Z,7856
2018-06-18T08:16:05.614Z,7868
2018-06-18T08:17:06.351Z,7980
2018-06-18T08:18:07.079Z,7928
2018-06-18T08:19:07.829Z,8040
2018-06-18T08:20:08.549Z,8848
2018-06-18T08:21:09.267Z,8468
2018-06-18T08:22:09.989Z,7996
2018-06-18T08:23:10.712Z,7932
2018-06-18T08:24:11.433Z,7996
2018-06-18T08:25:12.165Z,7944
2018-06-18T08:26:12.886Z,8080
2018-06-18T08:27:13.607Z,7908
2018-06-18T08:28:14.328Z,8536
2018-06-18T08:29:15.048Z,8968
2018-06-18T08:30:15.782Z,9196
2018-06-18T08:31:16.504Z,9424
2018-06-18T08:32:17.277Z,9796
2018-06-18T08:33:17.947Z,10344
2018-06-18T08:34:18.669Z,11104
2018-06-18T08:35:19.391Z,11528
2018-06-18T08:36:20.112Z,12752
2018-06-18T08:37:20.833Z,13388
2018-06-18T08:38:21.554Z,14612
2018-06-18T08:39:22.275Z,17600
2018-06-18T08:40:22.999Z,17856
2018-06-18T08:41:23.721Z,19488
2018-06-18T08:42:24.442Z,19072
2018-06-18T08:43:25.177Z,65664
2018-06-18T08:44:25.916Z,21408
2018-06-18T08:45:26.650Z,37280
2018-06-18T08:46:27.373Z,14848
2018-06-18T08:47:28.095Z,12960
2018-06-18T08:48:28.833Z,13624
2018-06-18T08:49:29.557Z,14032
2018-06-18T08:50:30.280Z,77888
2018-06-18T08:51:31.008Z,43008
2018-06-18T08:52:31.727Z,28192
2018-06-18T08:53:32.456Z,23648
2018-06-18T08:54:33.177Z,14716
2018-06-18T08:55:33.901Z,15440
2018-06-18T08:56:34.624Z,21152
2018-06-18T08:57:35.349Z,25184
2018-06-18T08:58:36.074Z,17600
2018-06-18T08:59:36.814Z,11064
2018-06-18T09:00:37.539Z,10580
2018-06-18T09:01:38.274Z,11988
2018-06-18T09:02:39.011Z,11816
2018-06-18T09:03:39.734Z,11956
2018-06-18T09:04:40.457Z,12192
2018-06-18T09:05:41.183Z,18912
2018-06-18T09:06:41.909Z,20704
2018-06-18T09:07:42.648Z,22688
2018-06-18T09:08:43.372Z,24128
2018-06-18T09:09:44.102Z,21216
2018-06-18T09:10:44.832Z,18656
2018-06-18T09:11:45.560Z,21888
2018-06-18T09:12:46.299Z,19648
2018-06-18T09:13:47.040Z,14028
2018-06-18T09:14:47.765Z,14220
2018-06-18T09:15:48.488Z,9812
2018-06-18T09:16:49.211Z,8796
2018-06-18T09:17:49.934Z,9408
2018-06-18T09:18:50.675Z,9864
2018-06-18T09:19:51.396Z,8176
2018-06-18T09:20:52.120Z,8988
2018-06-18T09:21:52.846Z,8876
2018-06-18T09:22:53.585Z,8176
2018-06-18T09:23:54.310Z,7128
2018-06-18T09:24:55.032Z,6512
2018-06-18T09:25:55.755Z,5436
2018-06-18T09:26:56.480Z,5044
2018-06-18T09:27:57.202Z,4856
2018-06-18T09:28:57.937Z,4368
2018-06-18T09:29:58.658Z,3692
2018-06-18T09:30:59.378Z,4404
2018-06-18T09:32:00.139Z,3648
2018-06-18T09:33:00.841Z,3896
2018-06-18T09:34:01.573Z,5080
2018-06-18T09:35:02.294Z,5700
2018-06-18T09:36:03.030Z,7352
2018-06-18T09:37:03.750Z,8588
2018-06-18T09:38:04.470Z,11388
2018-06-18T09:39:05.193Z,18048
2018-06-18T09:40:05.915Z,23168
2018-06-18T09:41:06.650Z,19200
2018-06-18T09:42:07.375Z,17920
2018-06-18T09:43:08.096Z,12840
2018-06-18T09:44:08.819Z,11664
2018-06-18T09:45:09.557Z,11744
2018-06-18T09:46:10.279Z,9516
2018-06-18T09:47:11.003Z,9448
2018-06-18T09:48:11.818Z,7324
2018-06-18T09:49:12.442Z,6580
2018-06-18T09:50:13.169Z,6348
2018-06-18T09:51:13.884Z,5648
2018-06-18T09:52:14.605Z,4944
2018-06-18T09:53:15.327Z,4804
2018-06-18T09:54:16.052Z,5084
2018-06-18T09:55:16.781Z,4736
2018-06-18T09:56:17.516Z,4404
2018-06-18T09:57:18.238Z,4876
2018-06-18T09:58:18.956Z,4876
2018-06-18T09:59:19.676Z,7748
2018-06-18T10:00:20.398Z,16704
2018-06-18T10:01:21.121Z,90560
2018-06-18T10:02:21.871Z,55360
2018-06-18T10:03:22.582Z,36352
2018-06-18T10:04:23.321Z,26368
2018-06-18T10:05:24.057Z,21888
2018-06-18T10:06:24.781Z,17408
2018-06-18T10:07:25.506Z,17600
2018-06-18T10:08:26.347Z,17760
2018-06-18T10:09:26.965Z,20640
2018-06-18T10:10:27.694Z,12268
2018-06-18T10:11:28.428Z,9348
2018-06-18T10:12:29.163Z,6864
2018-06-18T10:13:29.886Z,5560
2018-06-18T10:14:30.640Z,4860
2018-06-18T10:15:31.343Z,4464
2018-06-18T10:16:32.064Z,4316
2018-06-18T10:17:32.789Z,3780
2018-06-18T10:18:33.509Z,3704
2018-06-18T10:19:34.233Z,3588
2018-06-18T10:20:34.948Z,3328
2018-06-18T10:21:35.666Z,2952
2018-06-18T10:22:36.386Z,3092
2018-06-18T10:23:37.166Z,3472
2018-06-18T10:24:37.888Z,3548
2018-06-18T10:25:38.608Z,3292
2018-06-18T10:26:39.328Z,3420
2018-06-18T10:27:40.060Z,4072
2018-06-18T10:28:40.778Z,5088
2018-06-18T10:29:41.514Z,5492
2018-06-18T10:30:42.244Z,6176
2018-06-18T10:31:42.966Z,7316
2018-06-18T10:32:43.684Z,8624
2018-06-18T10:33:44.421Z,10848
2018-06-18T10:34:45.142Z,13372
2018-06-18T10:35:45.866Z,9240
2018-06-18T10:36:46.589Z,7696
2018-06-18T10:37:47.323Z,8692
2018-06-18T10:38:48.044Z,10824
2018-06-18T10:39:48.766Z,15224
2018-06-18T10:40:49.500Z,14280
2018-06-18T10:41:50.221Z,13556
2018-06-18T10:42:50.958Z,11248
2018-06-18T10:43:51.680Z,10832
2018-06-18T10:44:52.403Z,13472
2018-06-18T10:45:53.139Z,13864
2018-06-18T10:46:53.861Z,12804
2018-06-18T10:47:54.581Z,9220
2018-06-18T10:48:55.566Z,7728
2018-06-18T10:49:56.229Z,7508
2018-06-18T10:50:56.950Z,7384
2018-06-18T10:51:57.685Z,8120
2018-06-18T10:52:58.408Z,8876
2018-06-18T10:53:59.130Z,6032
2018-06-18T10:54:59.852Z,5356
2018-06-18T10:56:00.573Z,4876
2018-06-18T10:57:01.348Z,4820
2018-06-18T10:58:02.021Z,5140
2018-06-18T10:59:02.754Z,5168
2018-06-18T11:00:03.487Z,5536
2018-06-18T11:01:04.209Z,5348
2018-06-18T11:02:04.941Z,7688
2018-06-18T11:03:05.672Z,6244
2018-06-18T11:04:06.394Z,6720
2018-06-18T11:05:07.115Z,6640
2018-06-18T11:06:07.850Z,6552
2018-06-18T11:07:08.570Z,8728
2018-06-18T11:08:09.292Z,8240
2018-06-18T11:09:10.013Z,8384
2018-06-18T11:10:10.771Z,10240
2018-06-18T11:11:11.484Z,11044
2018-06-18T11:12:12.310Z,9424
2018-06-18T11:13:13.030Z,8008
2018-06-18T11:14:13.762Z,9740
2018-06-18T11:15:14.487Z,10912
2018-06-18T11:16:15.340Z,9460
2018-06-18T11:17:16.194Z,8020
2018-06-18T11:18:16.658Z,6576
2018-06-18T11:19:17.397Z,7464
2018-06-18T11:20:18.113Z,9872
2018-06-18T11:21:18.834Z,9936
2018-06-18T11:22:19.558Z,7980
2018-06-18T11:23:20.284Z,7984
2018-06-18T11:24:21.016Z,7792
2018-06-18T11:25:21.754Z,9828
2018-06-18T11:26:22.518Z,9516
2018-06-18T11:27:23.179Z,10844
2018-06-18T11:28:23.969Z,12504
2018-06-18T11:29:24.625Z,18464
2018-06-18T11:30:25.360Z,14236
2018-06-18T11:31:26.091Z,12068
2018-06-18T11:32:26.859Z,10488
2018-06-18T11:33:27.529Z,12540
2018-06-18T11:34:28.250Z,9904
2018-06-18T11:35:28.971Z,8152
2018-06-18T11:36:29.692Z,8600
2018-06-18T11:37:30.432Z,11576
2018-06-18T11:38:31.154Z,14168
2018-06-18T11:39:31.930Z,16292
2018-06-18T11:40:32.611Z,13992
2018-06-18T11:41:33.334Z,10664
2018-06-18T11:42:34.131Z,10404
2018-06-18T11:43:34.876Z,10092
2018-06-18T11:44:35.592Z,9648
2018-06-18T11:45:36.315Z,7836
2018-06-18T11:46:37.038Z,7708
2018-06-18T11:47:37.760Z,6852
2018-06-18T11:48:38.480Z,5992
2018-06-18T11:49:39.202Z,5656
2018-06-18T11:50:39.927Z,6260
2018-06-18T11:51:40.648Z,5192
2018-06-18T11:52:41.414Z,5124
2018-06-18T11:53:42.112Z,5876
2018-06-18T11:54:42.835Z,6072
2018-06-18T11:55:43.557Z,6400
2018-06-18T11:56:44.277Z,5508
2018-06-18T11:57:45.036Z,5492
2018-06-18T11:58:45.756Z,6540
2018-06-18T11:59:46.477Z,7444
2018-06-18T12:00:47.195Z,7756
2018-06-18T12:01:47.915Z,8740
2018-06-18T12:02:48.650Z,7896
2018-06-18T12:03:49.482Z,9924
2018-06-18T12:04:50.145Z,11304
2018-06-18T12:05:50.867Z,12496
2018-06-18T12:06:51.589Z,12240
2018-06-18T12:07:52.336Z,12828
2018-06-18T12:08:53.059Z,14320
2018-06-18T12:09:53.833Z,14972
2018-06-18T12:10:54.513Z,10724
2018-06-18T12:11:55.233Z,8772
2018-06-18T12:12:55.966Z,6888
2018-06-18T12:13:56.686Z,8388
2018-06-18T12:14:57.408Z,9424
2018-06-18T12:15:58.129Z,8724
2018-06-18T12:16:58.851Z,6652
2018-06-18T12:17:59.581Z,6360
2018-06-18T12:19:00.300Z,5788
2018-06-18T12:20:01.023Z,5788
2018-06-18T12:21:01.745Z,6088
2018-06-18T12:22:02.465Z,6752
2018-06-18T12:23:03.186Z,7484
2018-06-18T12:24:03.904Z,8296
2018-06-18T12:25:04.624Z,7916
2018-06-18T12:26:05.357Z,8404
2018-06-18T12:27:06.081Z,9368
2018-06-18T12:28:06.860Z,8736
2018-06-18T12:29:07.522Z,8660
2018-06-18T12:30:08.245Z,7744
2018-06-18T12:31:08.960Z,7676
2018-06-18T12:32:09.679Z,8724
2018-06-18T12:33:10.399Z,8652
2018-06-18T12:34:11.216Z,10580
2018-06-18T12:35:11.937Z,11064
2018-06-18T12:36:12.672Z,10016
2018-06-18T12:37:13.392Z,7932
2018-06-18T12:38:14.114Z,10228
2018-06-18T12:39:14.834Z,8860
2018-06-18T12:40:15.554Z,11012
2018-06-18T12:41:16.365Z,11836
2018-06-18T12:42:17.005Z,11276
2018-06-18T12:43:17.724Z,13628
2018-06-18T12:44:18.443Z,16960
2018-06-18T12:45:19.165Z,15676
2018-06-18T12:46:19.886Z,13080
2018-06-18T12:47:20.606Z,12752
2018-06-18T12:48:21.329Z,14688
2018-06-18T12:49:22.054Z,33472
2018-06-18T12:50:22.773Z,13716
2018-06-18T12:51:23.493Z,9548
2018-06-18T12:52:24.213Z,8124
2018-06-18T12:53:24.945Z,7428
2018-06-18T12:54:25.664Z,6624
2018-06-18T12:55:26.384Z,7392
2018-06-18T12:56:27.105Z,6996
2018-06-18T12:57:27.827Z,7096
2018-06-18T12:58:28.550Z,5964
2018-06-18T12:59:29.282Z,6592
2018-06-18T13:00:30.010Z,6120
2018-06-18T13:01:30.721Z,5888
2018-06-18T13:02:31.441Z,6932
2018-06-18T13:03:32.161Z,8696
2018-06-18T13:04:32.883Z,10248
2018-06-18T13:05:33.604Z,8876
2018-06-18T13:06:34.335Z,7016
2018-06-18T13:07:35.061Z,8636
2018-06-18T13:08:35.777Z,11672
2018-06-18T13:09:36.513Z,14444
2018-06-18T13:10:37.247Z,14368
2018-06-18T13:11:37.968Z,14672
2018-06-18T13:12:38.691Z,13968
2018-06-18T13:13:39.414Z,11716
2018-06-18T13:14:40.150Z,12024
2018-06-18T13:15:40.872Z,11076
2018-06-18T13:16:41.594Z,8808
2018-06-18T13:17:42.315Z,6848
2018-06-18T13:18:43.038Z,7420
2018-06-18T13:19:43.765Z,9816
2018-06-18T13:20:44.480Z,9208
2018-06-18T13:21:45.216Z,7684
2018-06-18T13:22:45.937Z,7140
2018-06-18T13:23:46.656Z,7500
2018-06-18T13:24:47.379Z,8200
2018-06-18T13:25:48.101Z,7968
2018-06-18T13:26:48.823Z,6636
2018-06-18T13:27:49.552Z,7152
2018-06-18T13:28:50.275Z,6844
2018-06-18T13:29:50.992Z,4848
2018-06-18T13:30:51.712Z,4892
2018-06-18T13:31:52.434Z,5316
2018-06-18T13:32:53.154Z,4592
2018-06-18T13:33:53.873Z,3524
2018-06-18T13:34:54.604Z,3324
2018-06-18T13:35:55.324Z,3412
2018-06-18T13:36:56.044Z,3680
2018-06-18T13:37:56.764Z,4144
2018-06-18T13:38:57.486Z,5104
2018-06-18T13:39:58.207Z,5112
2018-06-18T13:40:58.924Z,4368
2018-06-18T13:41:59.657Z,4864
2018-06-18T13:43:00.378Z,6016
2018-06-18T13:44:01.099Z,7240
2018-06-18T13:45:01.816Z,7592